Flight Track Log - Related Links

Times and Time Zones

All times are in EDT time to prevent confusion due to time zone crossing. See the JUS327 flight status page for this flight to view local times or setup timezone preferences in your user account.

Time Position Orientation Groundspeed Altitude Reporting Facility
EDT Latitude Longitude Course Direction KTS MPH feet Rate Location/Type
Tue 07:12:41 AM 38.7339 -97.6642 201° Southwest 169 194 5,200  Level Kansas Center
Tue 07:13:40 AM 38.7156 -97.7278 250° West 184 212 7,100 2,000 Climbing Kansas Center
Tue 07:14:41 AM 38.6956 -97.8106 253° West 244 281 9,200 1,918 Climbing Kansas Center
Tue 07:15:42 AM 38.6775 -97.9039 256° West 270 311 11,000 1,770 Climbing Kansas Center
Tue 07:16:43 AM 38.6436 -98.0050 247° West 308 354 12,800 2,067 Climbing Kansas Center
Tue 07:17:41 AM 38.6197 -98.1189 255° West 330 380 15,100 2,471 Climbing Kansas Center
Tue 07:18:42 AM 38.5908 -98.2331 252° West 337 388 17,700 2,508 Climbing Kansas Center
Tue 07:19:43 AM 38.5642 -98.3506 254° West 345 397 20,200 2,231 Climbing Kansas Center
Tue 07:20:43 AM 38.5353 -98.4725 253° West 359 413 22,200 1,951 Climbing Kansas Center
Tue 07:21:46 AM 38.5017 -98.5944 251° West 367 422 24,200 2,049 Climbing Kansas Center
Tue 07:22:46 AM 38.4683 -98.7200 251° West 373 429 26,400 1,866 Climbing Kansas Center
Tue 07:23:45 AM 38.4339 -98.8442 251° West 373 429 27,900 1,488 Climbing Kansas Center
Tue 07:24:47 AM 38.3947 -98.9722 249° West 384 442 29,400 1,377 Climbing Kansas Center
Tue 07:25:47 AM 38.3578 -99.1022 250° West 389 448 30,700 1,279 Climbing Kansas Center
Tue 07:26:49 AM 38.3189 -99.2328 249° West 394 453 32,000 1,475 Climbing Kansas Center
Tue 07:27:49 AM 38.2836 -99.3622 251° West 390 449 33,700 984 Climbing Kansas Center
Tue 07:28:51 AM 38.2381 -99.5147 249° West 386 444 34,000 150 Climbing Kansas Center
Tue 07:29:49 AM 38.1975 -99.6442 248° West 385 443 34,000  Level Kansas Center
Tue 07:30:51 AM 38.1639 -99.7656 251° West 382 440 34,000  Level Kansas Center
Tue 07:31:52 AM 38.1281 -99.8858 249° West 381 438 34,000  Level Kansas Center
Tue 07:32:52 AM 38.0864 -100.0242 249° West 377 434 34,000  Level Kansas Center
Tue 07:33:52 AM 38.0494 -100.1419 248° West 375 432 34,000  Level Kansas Center
Tue 07:34:55 AM 38.0139 -100.2597 249° West 375 432 34,000  Level Kansas Center
Tue 07:35:56 AM 37.9719 -100.3975 249° West 375 432 34,000  Level Kansas Center
Tue 07:36:56 AM 37.9361 -100.5153 249° West 375 432 34,000  Level Kansas Center
Tue 07:37:56 AM 37.9003 -100.6322 249° West 374 430 34,000  Level Kansas Center
Tue 07:38:56 AM 37.8583 -100.7683 249° West 374 430 34,000  Level Kansas Center
Tue 07:39:57 AM 37.8222 -100.8828 248° West 372 428 34,000  Level Kansas Center
Tue 07:41:00 AM 37.7797 -101.0161 248° West 372 428 34,000  Level Kansas Center
Tue 07:42:01 AM 37.7458 -101.1264 249° West 373 429 34,000  Level Kansas Center
Tue 07:43:01 AM 37.7081 -101.2464 248° West 371 427 34,000  Level Kansas Center
Tue 07:44:00 AM 37.6647 -101.3825 248° West 375 432 34,000  Level Kansas Center
Tue 07:45:01 AM 37.6264 -101.4994 248° West 376 433 34,000  Level Kansas Center
Tue 07:46:02 AM 37.5836 -101.6381 249° West 379 436 34,000  Level Kansas Center
Tue 07:47:05 AM 37.5464 -101.7564 248° West 381 438 34,000  Level Kansas Center
Tue 07:48:05 AM 37.5081 -101.8764 248° West 385 443 34,000  Level Kansas Center
Tue 07:48:26 AM 37.4897 -101.9367 249° West 383 441 34,000  Level Albuquerque Center
Tue 07:49:26 AM 37.4500 -102.0544 247° West 382 440 34,000  Level Albuquerque Center
Tue 07:50:27 AM 37.4114 -102.1736 248° West 383 441 34,000  Level Albuquerque Center
Tue 07:51:27 AM 37.3719 -102.2972 248° West 387 445 34,000  Level Albuquerque Center
Tue 07:52:27 AM 37.3264 -102.4383 248° West 389 448 34,000  Level Albuquerque Center
Tue 07:53:27 AM 37.2864 -102.5578 247° West 387 445 34,000  Level Albuquerque Center
Tue 07:54:30 AM 37.2461 -102.6794 247° West 391 450 34,000  Level Albuquerque Center
Tue 07:55:28 AM 37.2067 -102.8006 248° West 392 451 34,000  Level Albuquerque Center
Tue 07:56:28 AM 37.1600 -102.9403 247° West 389 448 34,000  Level Albuquerque Center
Tue 07:57:29 AM 37.1175 -103.0614 246° West 393 452 34,000  Level Albuquerque Center
Tue 07:58:29 AM 37.0781 -103.1817 248° West 390 449 34,000  Level Albuquerque Center
Tue 07:59:29 AM 37.0300 -103.3217 247° West 390 449 34,000  Level Albuquerque Center
Tue 08:00:30 AM 36.9894 -103.4414 247° West 389 448 34,000  Level Albuquerque Center
Tue 08:01:30 AM 36.9489 -103.5622 247° West 391 450 34,000  Level Albuquerque Center
Tue 08:02:30 AM 36.9081 -103.6822 247° West 391 450 34,000  Level Albuquerque Center
Tue 08:03:31 AM 36.8619 -103.8186 247° West 385 443 34,000  Level Albuquerque Center
Tue 08:04:31 AM 36.8217 -103.9342 246° West 378 435 34,000  Level Albuquerque Center
Tue 08:05:31 AM 36.7825 -104.0475 247° West 372 428 34,000  Level Albuquerque Center
Tue 08:06:32 AM 36.7425 -104.1558 245° Southwest 364 419 34,000  Level Albuquerque Center
Tue 08:07:32 AM 36.6989 -104.2836 247° West 359 413 34,000  Level Albuquerque Center
Tue 08:08:32 AM 36.6631 -104.3808 245° Southwest 358 412 34,000  Level Albuquerque Center
Tue 08:09:33 AM 36.6225 -104.4953 246° West 358 412 34,000  Level Albuquerque Center
Tue 08:10:33 AM 36.5800 -104.6092 245° Southwest 361 415 34,000  Level Albuquerque Center
Tue 08:11:33 AM 36.5403 -104.7286 248° West 368 423 34,000  Level Albuquerque Center
Tue 08:12:34 AM 36.4994 -104.8475 247° West 372 428 34,000  Level Albuquerque Center
Tue 08:13:34 AM 36.4519 -104.9597 242° Southwest 367 422 34,000  Level Albuquerque Center
Tue 08:14:35 AM 36.3972 -105.0686 238° Southwest 369 425 34,000  Level Albuquerque Center
Tue 08:15:35 AM 36.3450 -105.1744 239° Southwest 362 417 34,000  Level Albuquerque Center
Tue 08:16:35 AM 36.2969 -105.2858 242° Southwest 363 418 34,000  Level Albuquerque Center
Tue 08:17:36 AM 36.2469 -105.3961 241° Southwest 364 419 34,000  Level Albuquerque Center
Tue 08:18:36 AM 36.1964 -105.5058 240° Southwest 363 418 34,000  Level Albuquerque Center
Tue 08:19:37 AM 36.1494 -105.6094 241° Southwest 369 425 34,000  Level Albuquerque Center
Tue 08:20:37 AM 36.0858 -105.7419 239° Southwest 373 429 34,000  Level Albuquerque Center
Tue 08:21:38 AM 36.0325 -105.8556 240° Southwest 380 437 34,000  Level Albuquerque Center
Tue 08:22:38 AM 35.9775 -105.9708 240° Southwest 388 447 34,000  Level Albuquerque Center
Tue 08:23:39 AM 35.9247 -106.0897 241° Southwest 393 452 34,000  Level Albuquerque Center
Tue 08:24:39 AM 35.8686 -106.2094 240° Southwest 399 459 34,000  Level Albuquerque Center
Tue 08:25:40 AM 35.8158 -106.3242 240° Southwest 401 461 34,000  Level Albuquerque Center
Tue 08:26:40 AM 35.7631 -106.4369 240° Southwest 398 458 34,000  Level Albuquerque Center
Tue 08:27:41 AM 35.7000 -106.5678 239° Southwest 397 457 34,000  Level Albuquerque Center
Tue 08:28:41 AM 35.6467 -106.6792 240° Southwest 395 455 34,000  Level Albuquerque Center
Tue 08:29:42 AM 35.5903 -106.7939 239° Southwest 395 455 34,000  Level Albuquerque Center
Tue 08:30:42 AM 35.5347 -106.9125 240° Southwest 401 461 34,000  Level Albuquerque Center
Tue 08:31:43 AM 35.4714 -107.0236 235° Southwest 400 460 34,000  Level Albuquerque Center
Tue 08:32:43 AM 35.3736 -107.1044 214° Southwest 393 452 34,000  Level Albuquerque Center
Tue 08:33:44 AM 35.2844 -107.1911 218° Southwest 390 449 34,000  Level Albuquerque Center
Tue 08:34:44 AM 35.2189 -107.2733 226° Southwest 400 460 34,000  Level Albuquerque Center
Tue 08:35:45 AM 35.1461 -107.3736 228° Southwest 398 458 34,000  Level Albuquerque Center
Tue 08:36:46 AM 35.0725 -107.4747 228° Southwest 399 459 34,000  Level Albuquerque Center
Tue 08:37:46 AM 34.9961 -107.5731 227° Southwest 400 460 34,000  Level Albuquerque Center
Tue 08:38:47 AM 34.9006 -107.6886 225° Southwest 402 463 34,000  Level Albuquerque Center
Tue 08:39:47 AM 34.8214 -107.7853 225° Southwest 404 465 34,000  Level Albuquerque Center
Tue 08:40:48 AM 34.7436 -107.8861 227° Southwest 407 468 34,000  Level Albuquerque Center
Tue 08:41:48 AM 34.6633 -107.9831 225° Southwest 407 468 34,000  Level Albuquerque Center
Tue 08:42:49 AM 34.5842 -108.0803 225° Southwest 406 467 34,000  Level Albuquerque Center
Tue 08:43:50 AM 34.5039 -108.1778 225° Southwest 408 470 34,000  Level Albuquerque Center
Tue 08:44:50 AM 34.4214 -108.2775 225° Southwest 414 476 34,000  Level Albuquerque Center
Tue 08:45:51 AM 34.3392 -108.3761 225° Southwest 417 480 34,000  Level Albuquerque Center
Tue 08:46:51 AM 34.2511 -108.4825 225° Southwest 423 487 34,000  Level Albuquerque Center
Tue 08:47:52 AM 34.1683 -108.5806 224° Southwest 421 484 34,000  Level Albuquerque Center
Tue 08:48:52 AM 34.0858 -108.6800 225° Southwest 422 486 34,000  Level Albuquerque Center
Tue 08:49:53 AM 34.0039 -108.7781 225° Southwest 420 483 34,000  Level Albuquerque Center
Tue 08:50:54 AM 33.9206 -108.8739 224° Southwest 419 482 34,000  Level Albuquerque Center
Tue 08:51:54 AM 33.8375 -108.9697 224° Southwest 418 481 34,000  Level Albuquerque Center
Tue 08:52:55 AM 33.7569 -109.0669 225° Southwest 416 479 34,000 -347 Level Albuquerque Center
Tue 08:53:55 AM 33.6733 -109.1622 223° Southwest 418 481 33,300 -1,041 Descending Albuquerque Center
Tue 08:54:56 AM 33.5950 -109.2544 224° Southwest 409 471 31,900 -1,869 Descending Albuquerque Center
Tue 08:55:57 AM 33.5019 -109.3642 225° Southwest 401 461 29,500 -1,785 Descending Albuquerque Center
Tue 08:56:57 AM 33.4258 -109.4517 224° Southwest 393 452 28,300 -744 Descending Albuquerque Center
Tue 08:57:58 AM 33.3522 -109.5394 225° Southwest 384 442 28,000 -149 Descending Albuquerque Center
Tue 08:58:58 AM 33.2736 -109.6300 224° Southwest 390 449 28,000 -732 Level Albuquerque Center
Tue 09:00:01 AM 33.1936 -109.7222 224° Southwest 400 460 26,500 -1,659 Descending Albuquerque Center
Tue 09:01:01 AM 33.1181 -109.8111 225° Southwest 395 455 24,600 -1,934 Descending Albuquerque Center
Tue 09:02:02 AM 33.0461 -109.8914 223° Southwest 371 427 22,600 -1,918 Descending Albuquerque Center
Tue 09:03:03 AM 32.9703 -109.9753 223° Southwest 372 428 20,700 -1,884 Descending Albuquerque Center
Tue 09:04:03 AM 32.8831 -110.0814 226° Southwest 378 435 18,800 -1,835 Descending Albuquerque Center
Tue 09:05:04 AM 32.8097 -110.1706 226° Southwest 379 436 17,000 -1,289 Descending Albuquerque Center
Tue 09:06:04 AM 32.7372 -110.2522 223° Southwest 370 426 16,200 -744 Descending Albuquerque Center
Tue 09:07:05 AM 32.6700 -110.3261 223° Southwest 343 395 15,500 -765 Descending Albuquerque Center
Tue 09:07:46 AM 32.6167 -110.3772 219° Southwest 328 377 14,900 -689 Descending Albuquerque Center
Tue 09:08:06 AM 32.6097 -110.3894 236° Southwest 328 377 14,800 -727 Descending Albuquerque Center
Tue 09:08:52 AM 32.5506 -110.4539 223° Southwest 310 357 14,100 -897 Descending Albuquerque Center
Tue 09:09:53 AM 32.4900 -110.5264 225° Southwest 313 360 13,200 -1,082 Descending Albuquerque Center
Tue 09:10:54 AM 32.4175 -110.6044 222° Southwest 325 374 11,900 -992 Descending Albuquerque Center
Tue 09:11:54 AM 32.3528 -110.6778 224° Southwest 326 375 11,200 -645 Descending Albuquerque Center
Tue 09:12:55 AM 32.2989 -110.7531 230° Southwest 301 346 10,600 -1,103 Descending Albuquerque Center
Tue 09:14:10 AM 32.2789 -110.8481 256° West 273 314 8,700 -1,534 Descending Albuquerque Center
Tue 09:15:08 AM 32.2756 -110.9283 267° West 236 272 7,200 -956 Descending Albuquerque Center
Tue 09:16:03 AM 32.2811 -110.9900 276° West 209 241 6,900 -661 Descending Albuquerque Center
Tue 09:16:57 AM 32.3050 -111.0467 297° West 209 241 6,000 -870 Descending Albuquerque Center
Tue 09:17:12 AM 32.3106 -111.0539 312° West 215 247 5,900  Descending Albuquerque Center
Tue 09:17:58 AM 32.2978 -111.0964 250° West 185 213 6,000 98 Climbing Albuquerque Center
Tue 09:18:13 AM 32.2933 -111.1022 228° Southwest 204 235 6,000 -90 Level Albuquerque Center
Tue 09:19:05 AM 32.2500 -111.0942 171° South 196 226 5,900 -453 Descending Albuquerque Center
Tue 09:19:59 AM 32.2203 -111.0619 137° Southeast 159 183 5,200 -783 Descending Albuquerque Center
Tue 09:20:14 AM 32.2181 -111.0556 112° Southeast 169 194 5,000 -787 Descending Albuquerque Center
Tue 09:21:00 AM 32.1925 -111.0292 139° Southeast 145 167 4,400 -689 Descending Albuquerque Center
Tue 09:21:15 AM 32.1892 -111.0222 120° Southeast 154 177 4,300 -700 Descending Albuquerque Center
Tue 09:22:00 AM 32.1647 -110.9964 138° Southeast 141 162 3,700 -590 Descending Albuquerque Center
Tue 09:22:16 AM 32.1597 -110.9867 121° Southeast 147 169 3,700 -787 Level Albuquerque Center
Tue 09:23:01 AM 32.1347 -110.9642 143° Southeast 136 157 2,900 -1,067 Descending Albuquerque Center

Login

Don't have an account? Register now (free) for customized features, flight alerts, and more!